Flight Track Log - Related Links

Times and Time Zones

All times are in EDT time to prevent confusion due to time zone crossing. See the JBU917 flight status page for this flight to view local times or setup timezone preferences in your user account.

Time Position Orientation Groundspeed Altitude Reporting Facility
EDT Latitude Longitude Course Direction KTS MPH feet Rate Location/Type
Fri 11:46:30 PM 40.6167 -73.7000 294° West 198 228 3,000  Level New York TRACON
Fri 11:47:30 PM 40.6667 -73.6500 37° Northeast 246 283 5,600 2,950 Climbing New York TRACON
Fri 11:48:00 PM 40.8689 -74.2208 306° West  Level FlightAware Approximate
Fri 11:48:30 PM 40.7333 -73.6000 30° Northeast 263 303 8,900  Level New York TRACON
Fri 11:49:00 PM 40.9316 -74.3356 306° West  Level FlightAware Approximate
Fri 11:49:30 PM 40.8000 -73.5500 30° Northeast 306 352 11,000  Level New York TRACON
Fri 11:50:00 PM 40.9978 -74.4455 304° West  Level FlightAware Approximate
Fri 11:50:30 PM 40.8833 -73.6167 329° Northwest 335 386 13,900  Level New York TRACON
Fri 11:51:00 PM 41.0588 -74.5596 294° West  Level FlightAware Approximate
Fri 11:51:30 PM 40.9833 -73.6667 339° North 324 373 16,600  Level New York TRACON
Fri 11:52:30 PM 41.0333 -73.7167 323° Northwest 299 344 17,000 200 Climbing New York TRACON
Fri 11:53:30 PM 41.1333 -73.8333 319° Northwest 321 369 17,000  Level New York TRACON
Fri 11:53:57 PM 41.1308 -73.8867 266° West 354 407 17,000  Level New York Center
Fri 11:54:57 PM 41.1292 -74.0325 269° West 375 432 17,000  Level New York Center
Fri 11:55:59 PM 41.1319 -74.1511 272° West 387 445 17,000  Level New York Center
Fri 11:56:58 PM 41.1400 -74.3031 274° West 381 438 17,000 350 Level New York Center
Fri 11:57:59 PM 41.1739 -74.4178 291° West 371 427 17,700 1,240 Climbing New York Center
Fri 11:58:59 PM 41.2156 -74.5553 292° West 377 434 19,500 2,051 Climbing New York Center
Fri 11:59:56 PM 41.2547 -74.6953 290° West 383 441 21,700 2,067 Climbing New York Center
Sat 12:00:58 AM 41.2958 -74.8331 292° West 397 457 23,600 1,770 Climbing New York Center
Sat 12:01:58 AM 41.3308 -74.9650 289° West 404 465 25,300 1,525 Climbing New York Center
Sat 12:02:56 AM 41.3714 -75.1086 291° West 410 472 26,600 1,424 Climbing New York Center
Sat 12:03:56 AM 41.4119 -75.2550 290° West 418 481 28,100 1,426 Climbing New York Center
Sat 12:04:58 AM 41.4539 -75.4044 291° West 423 487 29,500 1,438 Climbing New York Center
Sat 12:05:57 AM 41.4958 -75.5542 291° West 423 487 31,000 1,450 Climbing New York Center
Sat 12:06:58 AM 41.5378 -75.7014 291° West 423 487 32,400 1,261 Climbing New York Center
Sat 12:07:56 AM 41.5797 -75.8458 291° West 423 487 33,500 1,150 Climbing New York Center
Sat 12:08:58 AM 41.6233 -75.9906 292° West 423 487 34,700 1,131 Climbing New York Center
Sat 12:09:58 AM 41.6606 -76.1350 289° West 416 479 35,800 655 Climbing New York Center
Sat 12:10:57 AM 41.7039 -76.2803 292° West 416 479 36,000 102 Climbing New York Center
Sat 12:11:56 AM 41.7500 -76.4508 290° West 416 479 36,000  Level New York Center
Sat 12:12:58 AM 41.7853 -76.5847 290° West 435 501 36,000  Level New York Center
Sat 12:13:56 AM 41.8297 -76.7389 291° West 435 501 36,000  Level New York Center
Sat 12:15:23 AM 41.8925 -76.9622 291° West 435 501 36,000  Level Cleveland Center
Sat 12:16:23 AM 41.9328 -77.1164 289° West 435 501 36,000  Level Cleveland Center
Sat 12:17:23 AM 41.9747 -77.2706 290° West 440 506 36,000  Level Cleveland Center
Sat 12:18:23 AM 42.0167 -77.4247 290° West 440 506 36,000  Level Cleveland Center
Sat 12:19:23 AM 42.0564 -77.5794 289° West 440 506 36,000  Level Cleveland Center
Sat 12:20:23 AM 42.0978 -77.7372 290° West 440 506 36,000  Level Cleveland Center
Sat 12:21:23 AM 42.1392 -77.8950 290° West 440 506 36,000  Level Cleveland Center
Sat 12:22:23 AM 42.1800 -78.0472 290° West 440 506 36,000  Level Cleveland Center
Sat 12:23:23 AM 42.2211 -78.2083 289° West 440 506 36,000  Level Cleveland Center
Sat 12:24:23 AM 42.2617 -78.3611 290° West 440 506 36,000  Level Cleveland Center
Sat 12:25:24 AM 42.3019 -78.5169 289° West 440 506 36,000  Level Cleveland Center
Sat 12:26:23 AM 42.3425 -78.6786 289° West 440 506 36,000  Level Cleveland Center
Sat 12:27:23 AM 42.3825 -78.8347 289° West 440 506 36,000  Level Cleveland Center
Sat 12:28:23 AM 42.4200 -78.9942 288° West 440 506 36,000  Level Cleveland Center
Sat 12:29:23 AM 42.4617 -79.1506 290° West 440 506 36,000  Level Cleveland Center
Sat 12:30:23 AM 42.4950 -79.3244 285° West 440 506 36,000  Level Cleveland Center
Sat 12:31:23 AM 42.5031 -79.4933 274° West 445 512 36,000  Level Cleveland Center
Sat 12:32:24 AM 42.5108 -79.6594 274° West 445 512 36,000  Level Cleveland Center
Sat 12:33:23 AM 42.5181 -79.8283 273° West 445 512 36,000  Level Cleveland Center
Sat 12:34:23 AM 42.5294 -79.9886 276° West 439 505 36,000  Level Cleveland Center
Sat 12:35:23 AM 42.5303 -80.1353 270° West 439 505 36,000  Level Cleveland Center
Sat 12:36:23 AM 42.5369 -80.3014 273° West 434 499 36,000  Level Cleveland Center
Sat 12:37:24 AM 42.5436 -80.4619 273° West 438 504 36,000  Level Cleveland Center
Sat 12:38:23 AM 42.5497 -80.6225 273° West 438 504 36,000  Level Cleveland Center
Sat 12:39:23 AM 42.5581 -80.7889 274° West 438 504 36,000  Level Cleveland Center
Sat 12:40:23 AM 42.5639 -80.9525 273° West 444 511 36,000  Level Cleveland Center
Sat 12:41:23 AM 42.5797 -81.1303 277° West 436 502 36,000  Level Cleveland Center
Sat 12:42:23 AM 42.5975 -81.2994 278° West 442 509 36,000  Level Cleveland Center
Sat 12:43:23 AM 42.6131 -81.4606 278° West 445 512 36,000  Level Cleveland Center
Sat 12:44:23 AM 42.6306 -81.6272 278° West 451 519 36,000  Level Cleveland Center
Sat 12:45:23 AM 42.6456 -81.7914 277° West 446 513 36,000  Level Cleveland Center
Sat 12:46:23 AM 42.6603 -81.9581 277° West 446 513 36,000  Level Cleveland Center
Sat 12:47:23 AM 42.6769 -82.1222 278° West 446 513 36,000  Level Cleveland Center
Sat 12:48:23 AM 42.6936 -82.2894 278° West 446 513 36,000  Level Cleveland Center
Sat 12:49:23 AM 42.7075 -82.4564 277° West 446 513 36,000  Level Cleveland Center
Sat 12:50:23 AM 42.7236 -82.6236 278° West 446 513 36,000  Level Cleveland Center
Sat 12:51:23 AM 42.7392 -82.7939 277° West 451 519 36,000  Level Cleveland Center
Sat 12:52:23 AM 42.7544 -82.9642 277° West 451 519 36,000  Level Cleveland Center
Sat 12:53:23 AM 42.7697 -83.1317 277° West 451 519 36,000  Level Cleveland Center
Sat 12:54:23 AM 42.7825 -83.2961 276° West 446 513 36,000  Level Cleveland Center
Sat 12:55:23 AM 42.7972 -83.4639 277° West 446 513 36,000  Level Cleveland Center
Sat 12:56:23 AM 42.8117 -83.6286 277° West 446 513 36,000  Level Cleveland Center
Sat 12:57:23 AM 42.8219 -83.7906 275° West 446 513 36,000  Level Cleveland Center
Sat 12:58:23 AM 42.8339 -83.9553 276° West 446 513 36,000  Level Cleveland Center
Sat 12:59:23 AM 42.8478 -84.1233 276° West 446 513 36,000 -100 Level Cleveland Center
Sat 01:00:23 AM 42.8614 -84.2856 277° West 446 513 35,800 -1,150 Descending Cleveland Center
Sat 01:01:23 AM 42.8711 -84.4333 275° West 446 513 33,700 -2,257 Descending Cleveland Center
Sat 01:02:04 AM 42.8822 -84.5578 277° West 447 514 32,000 -1,010 Descending Chicago Center
Sat 01:03:04 AM 42.8683 -84.7289 264° West 456 525 32,000  Level Chicago Center
Sat 01:04:05 AM 42.8519 -84.8994 263° West 456 525 32,000  Level Chicago Center
Sat 01:05:05 AM 42.8331 -85.0700 261° West 456 525 32,000  Level Chicago Center
Sat 01:06:05 AM 42.8144 -85.2422 262° West 460 529 32,000  Level Chicago Center
Sat 01:07:06 AM 42.7964 -85.4136 262° West 457 526 32,000  Level Chicago Center
Sat 01:08:06 AM 42.7717 -85.5819 259° West 452 520 32,000 -248 Level Chicago Center
Sat 01:09:07 AM 42.7408 -85.7511 256° West 456 525 31,500 -1,438 Descending Chicago Center
Sat 01:10:07 AM 42.7097 -85.9228 256° West 462 532 29,100 -2,331 Descending Chicago Center
Sat 01:11:08 AM 42.6792 -86.0919 256° West 459 528 26,800 -2,231 Descending Chicago Center
Sat 01:12:08 AM 42.6492 -86.2544 256° West 448 516 24,600 -2,083 Descending Chicago Center
Sat 01:13:09 AM 42.6206 -86.4067 256° West 424 488 22,600 -2,033 Descending Chicago Center
Sat 01:14:09 AM 42.5914 -86.5569 255° West 412 474 20,500 -2,000 Descending Chicago Center
Sat 01:15:09 AM 42.5650 -86.7047 256° West 400 460 18,600 -1,884 Descending Chicago Center
Sat 01:16:10 AM 42.5322 -86.8406 252° West 387 445 16,700 -1,835 Descending Chicago Center
Sat 01:17:10 AM 42.4933 -86.9697 248° West 379 436 14,900 -1,884 Descending Chicago Center
Sat 01:18:11 AM 42.4575 -87.0986 249° West 371 427 12,900 -1,884 Descending Chicago Center
Sat 01:19:11 AM 42.4233 -87.2292 251° West 369 425 11,100 -1,438 Descending Chicago Center
Sat 01:20:12 AM 42.3883 -87.3533 249° West 359 413 10,000 -545 Descending Chicago Center
Sat 01:21:12 AM 42.3558 -87.4717 250° West 345 397 10,000 -400 Level Chicago Center
Sat 01:22:12 AM 42.3111 -87.5639 237° Southwest 301 346 9,200 -1,140 Descending Chicago Center
Sat 01:23:13 AM 42.2514 -87.6281 219° Southwest 277 319 7,700 -1,091 Descending Chicago Center
Sat 01:24:13 AM 42.1942 -87.6889 218° Southwest 266 306 7,000 -347 Descending Chicago Center
Sat 01:25:14 AM 42.1494 -87.7361 218° Southwest 210 242 7,000  Level Chicago Center
Sat 01:26:14 AM 42.1192 -87.7911 233° Southwest 195 224 7,000  Level Chicago Center
Sat 01:26:34 AM 42.1167 -87.8333 265° West 203 234 7,000  Level Chicago TRACON
Sat 01:27:34 AM 42.1000 -87.9000 251° West 204 235 7,000  Level Chicago TRACON
Sat 01:28:40 AM 42.0833 -87.9833 255° West 204 235 7,000 -200 Level Chicago TRACON
Sat 01:29:34 AM 42.0833 -88.0500 270° West 203 234 6,600 -895 Descending Chicago TRACON
Sat 01:30:34 AM 42.0833 -88.1333 270° West 210 242 5,300 -1,294 Descending Chicago TRACON
Sat 01:31:16 AM 42.0769 -88.1778 259° West 209 241 4,400 -765 Descending Chicago Center
Sat 01:32:16 AM 42.0492 -88.2317 235° Southwest 196 226 4,000 -198 Descending Chicago Center
Sat 01:33:17 AM 42.0036 -88.2347 183° South 175 201 4,000  Level Chicago Center
Sat 01:34:17 AM 41.9847 -88.1778 114° Southeast 176 203 4,000 -200 Level Chicago Center
Sat 01:35:17 AM 41.9689 -88.1197 110° East 169 194 3,600 -742 Descending Chicago Center
Sat 01:35:46 AM 41.9667 -88.0833 95° East 168 193 2,900 -1,084 Descending Chicago TRACON
Sat 01:36:40 AM 41.9667 -88.0333 90° East 158 182 2,100 -778 Descending Chicago TRACON
Sat 01:37:34 AM 41.9667 -87.9833 90° East 120 138 1,500 -632 Descending Chicago TRACON
Sat 01:38:34 AM 41.9667 -87.9500 90° East 122 140 900 -600 Descending Chicago TRACON

Login

Don't have an account? Register now (free) for customized features, flight alerts, and more!